createdAt,value
2019-03-10T00:02:12.719Z,98451.42
2019-03-10T00:04:38.772Z,98448.46
2019-03-10T00:07:04.741Z,98448.99
2019-03-10T00:09:30.700Z,98447.70
2019-03-10T00:11:56.769Z,98444.13
2019-03-10T00:14:22.708Z,98438.42
2019-03-10T00:16:48.555Z,98440.16
2019-03-10T00:19:14.643Z,98438.92
2019-03-10T00:21:40.605Z,98439.78
2019-03-10T00:24:06.438Z,98438.48
2019-03-10T00:26:32.579Z,98441.91
2019-03-10T00:28:58.521Z,98430.91
2019-03-10T00:31:24.502Z,98445.36
2019-03-10T00:33:50.610Z,98440.52
2019-03-10T00:36:16.569Z,98437.92
2019-03-10T00:38:47.208Z,98434.40
2019-03-10T00:41:33.296Z,98440.41
2019-03-10T00:44:06.887Z,98433.96
2019-03-10T00:46:34.760Z,98385.61
2019-03-10T00:49:05.287Z,98433.05
2019-03-10T00:51:41.956Z,98433.48
2019-03-10T00:54:07.812Z,98427.52
2019-03-10T00:56:33.784Z,98427.16
2019-03-10T00:58:59.796Z,98430.14
2019-03-10T01:01:25.756Z,98426.23
2019-03-10T01:03:51.738Z,98427.16
2019-03-10T01:06:17.753Z,98426.71
2019-03-10T01:08:43.708Z,98431.06
2019-03-10T01:11:09.674Z,98422.34
2019-03-10T01:13:35.839Z,98424.05
2019-03-10T01:16:01.802Z,98429.20
2019-03-10T01:18:28.704Z,98422.64
2019-03-10T01:20:54.767Z,98422.87
2019-03-10T01:23:20.611Z,98422.19
2019-03-10T01:25:46.608Z,98428.74
2019-03-10T01:28:12.716Z,98424.05
2019-03-10T01:30:40.446Z,98434.39
2019-03-10T01:33:11.116Z,98434.75
2019-03-10T01:35:37.088Z,98429.72
2019-03-10T01:38:02.945Z,98427.61
2019-03-10T01:40:28.825Z,98427.29
2019-03-10T01:42:54.830Z,98427.67
2019-03-10T01:45:20.813Z,98435.42
2019-03-10T01:47:46.673Z,98433.73
2019-03-10T01:50:12.903Z,98436.22
2019-03-10T01:52:38.780Z,98432.48
2019-03-10T01:55:05.572Z,98435.97
2019-03-10T01:57:31.590Z,98438.19
2019-03-10T01:59:57.451Z,98441.23
2019-03-10T02:02:25.699Z,98439.93
2019-03-10T02:04:51.084Z,98437.75
2019-03-10T02:07:17.122Z,98437.22
2019-03-10T02:09:43.014Z,98432.44
2019-03-10T02:12:09.164Z,98434.45
2019-03-10T02:14:35.117Z,98427.06
2019-03-10T02:17:00.966Z,98437.47
2019-03-10T02:19:27.061Z,98430.05
2019-03-10T02:21:53.079Z,98424.41
2019-03-10T02:24:23.812Z,98380.93
2019-03-10T02:26:46.791Z,98428.53
2019-03-10T02:29:12.639Z,98430.00
2019-03-10T02:31:38.501Z,98425.80
2019-03-10T02:34:06.494Z,98426.33
2019-03-10T02:36:32.361Z,98426.03
2019-03-10T02:38:58.314Z,98429.92
2019-03-10T02:41:24.439Z,98425.20
2019-03-10T02:43:50.285Z,98420.88
2019-03-10T02:46:16.188Z,98417.78
2019-03-10T02:48:42.234Z,98419.03
2019-03-10T02:51:08.331Z,98421.13
2019-03-10T02:53:34.325Z,98428.94
2019-03-10T02:56:00.369Z,98428.45
2019-03-10T02:58:26.250Z,98426.66
2019-03-10T03:00:52.245Z,98427.09
2019-03-10T03:03:18.181Z,98424.50
2019-03-10T03:05:44.040Z,98430.12
2019-03-10T03:08:09.894Z,98428.41
2019-03-10T03:10:35.990Z,98437.92
2019-03-10T03:13:01.833Z,98433.48
2019-03-10T03:15:27.801Z,98436.14
2019-03-10T03:17:53.827Z,98438.30
2019-03-10T03:20:19.708Z,98438.63
2019-03-10T03:22:45.577Z,98428.70
2019-03-10T03:25:11.624Z,98430.33
2019-03-10T03:27:37.542Z,98429.03
2019-03-10T03:30:05.678Z,98432.94
2019-03-10T03:32:31.878Z,98433.43
2019-03-10T03:34:57.745Z,98433.10
2019-03-10T03:37:23.805Z,98436.62
2019-03-10T03:39:50.226Z,98440.47
2019-03-10T03:42:16.203Z,98440.41
2019-03-10T03:44:42.169Z,98441.65
2019-03-10T03:47:08.215Z,98441.17
2019-03-10T03:49:34.061Z,98447.62
2019-03-10T03:51:59.947Z,98451.08
2019-03-10T03:54:26.074Z,98454.59
2019-03-10T03:56:52.016Z,98457.52
2019-03-10T03:59:17.964Z,98461.81
2019-03-10T04:01:45.959Z,98459.15
2019-03-10T04:04:11.941Z,98458.71
2019-03-10T04:06:37.801Z,98460.81
2019-03-10T04:09:05.153Z,98469.39
2019-03-10T04:11:31.021Z,98470.69
2019-03-10T04:13:57.218Z,98474.09
2019-03-10T04:16:23.208Z,98478.79
2019-03-10T04:18:49.270Z,98483.47
2019-03-10T04:21:15.255Z,98489.08
2019-03-10T04:23:41.232Z,98489.89
2019-03-10T04:26:07.149Z,98492.87
2019-03-10T04:28:33.000Z,98492.76
2019-03-10T04:30:59.171Z,98499.64
2019-03-10T04:33:25.050Z,98504.80
2019-03-10T04:35:52.805Z,98510.36
2019-03-10T04:38:18.945Z,98505.04
2019-03-10T04:40:44.825Z,98512.31
2019-03-10T04:43:11.466Z,98510.95
2019-03-10T04:45:37.544Z,98516.58
2019-03-10T04:48:03.421Z,98524.33
2019-03-10T04:50:29.377Z,98523.41
2019-03-10T04:52:55.406Z,98536.80
2019-03-10T04:55:32.195Z,98533.81
2019-03-10T04:58:02.676Z,98533.81
2019-03-10T05:00:29.336Z,98537.28
2019-03-10T05:02:55.312Z,98540.77
2019-03-10T05:05:21.439Z,98543.84
2019-03-10T05:07:47.305Z,98547.33
2019-03-10T05:10:13.317Z,98554.30
2019-03-10T05:12:39.440Z,98550.41
2019-03-10T05:15:05.435Z,98552.95
2019-03-10T05:17:31.283Z,98552.53
2019-03-10T05:19:57.242Z,98553.00
2019-03-10T05:22:23.231Z,98556.48
2019-03-10T05:24:49.240Z,98557.46
2019-03-10T05:27:15.268Z,98560.50
2019-03-10T05:29:41.111Z,98564.46
2019-03-10T05:32:06.997Z,98567.92
2019-03-10T05:34:33.032Z,98567.98
2019-03-10T05:36:58.884Z,98573.56
2019-03-10T05:39:24.780Z,98581.91
2019-03-10T05:41:50.764Z,98582.02
2019-03-10T05:44:16.626Z,98585.11
2019-03-10T05:46:42.478Z,98594.16
2019-03-10T05:49:08.524Z,98600.17
2019-03-10T05:51:34.371Z,98595.80
2019-03-10T05:54:00.221Z,98598.02
2019-03-10T05:56:26.251Z,98606.20
2019-03-10T05:58:52.212Z,98610.62
2019-03-10T06:01:18.086Z,98611.13
2019-03-10T06:03:44.120Z,98616.72
2019-03-10T06:06:09.987Z,98623.22
2019-03-10T06:08:36.068Z,98623.69
2019-03-10T06:11:02.407Z,98631.45
2019-03-10T06:13:30.516Z,98620.56
2019-03-10T06:15:56.404Z,98628.89
2019-03-10T06:18:22.442Z,98634.09
2019-03-10T06:20:48.322Z,98634.92
2019-03-10T06:23:14.206Z,98631.02
2019-03-10T06:25:40.339Z,98650.09
2019-03-10T06:28:06.276Z,98645.80
2019-03-10T06:30:32.233Z,98656.27
2019-03-10T06:32:58.284Z,98660.55
2019-03-10T06:35:24.189Z,98661.47
2019-03-10T06:37:50.039Z,98657.62
2019-03-10T06:40:16.078Z,98658.11
2019-03-10T06:42:43.915Z,98664.67
2019-03-10T06:45:09.893Z,98665.53
2019-03-10T06:47:35.932Z,98672.42
2019-03-10T06:50:02.716Z,98672.86
2019-03-10T06:52:28.583Z,98680.71
2019-03-10T06:54:54.605Z,98675.56
2019-03-10T06:57:20.463Z,98686.41
2019-03-10T06:59:46.451Z,98699.03
2019-03-10T07:02:12.523Z,98687.76
2019-03-10T07:04:38.406Z,98687.81
2019-03-10T07:07:04.375Z,98697.39
2019-03-10T07:09:30.445Z,98706.07
2019-03-10T07:11:56.426Z,98698.79
2019-03-10T07:14:22.279Z,98706.55
2019-03-10T07:16:48.466Z,98708.67
2019-03-10T07:19:14.311Z,98719.02
2019-03-10T07:21:40.184Z,98722.92
2019-03-10T07:24:06.243Z,98726.49
2019-03-10T07:26:33.139Z,98730.10
2019-03-10T07:29:03.501Z,98738.88
2019-03-10T07:31:47.924Z,98742.05
2019-03-10T07:34:15.666Z,98741.14
2019-03-10T07:37:01.727Z,98747.30
2019-03-10T07:39:38.283Z,98763.78
2019-03-10T07:42:06.231Z,98760.30
2019-03-10T07:44:34.067Z,98770.66
2019-03-10T07:47:17.097Z,98774.46
2019-03-10T07:49:47.457Z,98776.49
2019-03-10T07:52:24.183Z,98773.45
2019-03-10T07:54:51.943Z,98772.50
2019-03-10T07:57:25.714Z,98776.34
2019-03-10T07:59:56.343Z,98787.13
2019-03-10T08:02:36.255Z,98775.71
2019-03-10T08:05:07.822Z,98787.38
2019-03-10T08:07:35.681Z,98780.42
2019-03-10T08:10:03.948Z,98782.49
2019-03-10T08:12:34.661Z,98781.09
2019-03-10T08:15:18.721Z,98784.94
2019-03-10T08:17:49.486Z,98779.73
2019-03-10T08:20:19.886Z,98788.84
2019-03-10T08:22:59.673Z,98789.72
2019-03-10T08:25:33.085Z,98791.50
2019-03-10T08:28:20.368Z,98796.18
2019-03-10T08:30:54.186Z,98792.17
2019-03-10T08:33:38.217Z,98799.94
2019-03-10T08:36:08.587Z,98809.41
2019-03-10T08:38:42.443Z,98820.55
2019-03-10T08:41:26.466Z,98810.95
2019-03-10T08:43:57.286Z,98815.09
2019-03-10T08:46:27.718Z,98810.16
2019-03-10T08:49:01.434Z,98816.95
2019-03-10T08:51:45.464Z,98814.25
2019-03-10T08:54:16.297Z,98811.55
2019-03-10T08:56:44.048Z,98816.16
2019-03-10T08:59:20.811Z,98818.22
2019-03-10T09:01:48.587Z,98825.93
2019-03-10T09:04:16.461Z,98821.97
2019-03-10T09:07:02.496Z,98827.56
2019-03-10T09:09:39.141Z,98825.77
2019-03-10T09:12:07.019Z,98840.92
2019-03-10T09:14:40.833Z,98834.94
2019-03-10T09:17:17.710Z,98833.22
2019-03-10T09:19:48.336Z,98838.27
2019-03-10T09:22:27.995Z,98846.35
2019-03-10T09:25:01.422Z,98846.53
2019-03-10T09:27:29.401Z,98846.22
2019-03-10T09:30:09.200Z,98846.38
2019-03-10T09:32:37.104Z,98844.05
2019-03-10T09:35:05.717Z,98853.53
2019-03-10T09:37:39.483Z,98862.55
2019-03-10T09:40:08.160Z,98865.05
2019-03-10T09:42:38.569Z,98876.25
2019-03-10T09:45:19.527Z,98867.23
2019-03-10T09:47:47.327Z,98877.77
2019-03-10T09:50:17.799Z,98870.55
2019-03-10T09:52:54.461Z,98880.24
2019-03-10T09:55:24.888Z,98869.77
2019-03-10T09:58:01.687Z,98877.92
2019-03-10T10:00:45.980Z,98872.97
2019-03-10T10:03:25.993Z,98873.37
2019-03-10T10:05:59.538Z,98879.82
2019-03-10T10:08:36.216Z,98871.45
2019-03-10T10:11:04.072Z,98888.77
2019-03-10T10:13:34.465Z,98877.02
2019-03-10T10:16:19.038Z,98878.03
2019-03-10T10:19:01.574Z,98880.64
2019-03-10T10:21:29.488Z,98885.97
2019-03-10T10:23:59.889Z,98891.09
2019-03-10T10:26:30.412Z,98900.08
2019-03-10T10:28:58.433Z,98890.34
2019-03-10T10:31:29.116Z,98902.41
2019-03-10T10:33:56.916Z,98899.58
2019-03-10T10:36:30.429Z,98897.17
2019-03-10T10:39:01.256Z,98898.73
2019-03-10T10:41:29.004Z,98907.71
2019-03-10T10:44:11.712Z,98897.36
2019-03-10T10:46:39.491Z,98900.30
2019-03-10T10:49:10.056Z,98898.08
2019-03-10T10:51:40.790Z,98895.36
2019-03-10T10:54:08.519Z,98909.66
2019-03-10T10:56:48.435Z,98899.89
2019-03-10T10:59:16.211Z,98908.91
2019-03-10T11:01:56.104Z,98905.76
2019-03-10T11:04:23.962Z,98908.81
2019-03-10T11:06:54.598Z,98913.47
2019-03-10T11:09:28.537Z,98927.91
2019-03-10T11:12:12.518Z,98931.04
2019-03-10T11:14:55.558Z,98926.00
2019-03-10T11:17:26.198Z,98929.98
2019-03-10T11:20:02.973Z,98931.17
2019-03-10T11:22:30.839Z,98929.86
2019-03-10T11:25:04.714Z,98929.23
2019-03-10T11:27:49.061Z,98926.30
2019-03-10T11:30:17.061Z,98922.88
2019-03-10T11:32:44.843Z,98927.20
2019-03-10T11:35:21.516Z,98938.78
2019-03-10T11:37:51.976Z,98952.53
2019-03-10T11:40:36.135Z,98957.35
2019-03-10T11:43:04.017Z,98955.14
2019-03-10T11:45:44.013Z,98962.48
2019-03-10T11:48:14.388Z,98966.63
2019-03-10T11:50:51.199Z,98973.42
2019-03-10T11:53:21.546Z,98972.12
2019-03-10T11:55:52.308Z,98974.61
2019-03-10T11:58:20.126Z,98981.77
2019-03-10T12:00:47.889Z,98983.25
2019-03-10T12:03:32.018Z,98983.57
2019-03-10T12:06:08.702Z,98985.38
2019-03-10T12:08:36.588Z,98979.27
2019-03-10T12:11:02.568Z,98977.10
2019-03-10T12:13:28.525Z,98974.75
2019-03-10T12:15:54.640Z,98971.45
2019-03-10T12:18:20.497Z,98977.16
2019-03-10T12:20:46.356Z,98982.22
2019-03-10T12:23:12.405Z,98979.10
2019-03-10T12:25:38.238Z,98984.81
2019-03-10T12:28:04.227Z,98982.09
2019-03-10T12:30:30.333Z,98989.94
2019-03-10T12:32:56.199Z,98989.81
2019-03-10T12:35:22.150Z,98987.48
2019-03-10T12:37:48.162Z,98987.41
2019-03-10T12:40:14.121Z,98992.58
2019-03-10T12:42:40.074Z,98994.34
2019-03-10T12:45:07.129Z,98990.27
2019-03-10T12:47:33.010Z,98989.77
2019-03-10T12:49:58.899Z,98997.42
2019-03-10T12:52:24.996Z,98985.09
2019-03-10T12:54:51.112Z,98991.84
2019-03-10T12:57:17.066Z,98994.52
2019-03-10T12:59:43.060Z,98996.69
2019-03-10T13:02:09.027Z,99003.81
2019-03-10T13:04:34.982Z,98999.75
2019-03-10T13:07:00.995Z,99004.72
2019-03-10T13:09:26.839Z,98998.39
2019-03-10T13:11:52.822Z,99001.06
2019-03-10T13:14:18.892Z,99001.13
2019-03-10T13:16:44.746Z,99000.03
2019-03-10T13:19:10.598Z,99006.75
2019-03-10T13:21:36.702Z,99007.48
2019-03-10T13:24:02.769Z,99008.52
2019-03-10T13:26:28.725Z,99020.30
2019-03-10T13:28:54.844Z,99017.41
2019-03-10T13:31:20.688Z,99018.04
2019-03-10T13:33:46.570Z,99020.66
2019-03-10T13:36:12.681Z,99027.63
2019-03-10T13:38:38.541Z,99026.55
2019-03-10T13:41:04.411Z,99025.91
2019-03-10T13:43:30.606Z,99029.94
2019-03-10T13:45:56.538Z,99033.87
2019-03-10T13:48:22.490Z,99031.04
2019-03-10T13:50:48.619Z,99027.77
2019-03-10T13:53:14.555Z,99041.31
2019-03-10T13:55:40.501Z,99035.77
2019-03-10T13:58:08.430Z,99044.14
2019-03-10T14:00:34.281Z,99043.83
2019-03-10T14:03:00.180Z,99048.83
2019-03-10T14:05:26.124Z,99053.41
2019-03-10T14:07:51.958Z,99065.92
2019-03-10T14:10:17.914Z,99066.52
2019-03-10T14:12:43.994Z,99064.94
2019-03-10T14:15:11.755Z,99069.27
2019-03-10T14:17:37.616Z,99076.06
2019-03-10T14:20:05.244Z,99077.83
2019-03-10T14:22:31.101Z,99080.44
2019-03-10T14:24:56.973Z,99072.59
2019-03-10T14:27:23.158Z,99087.17
2019-03-10T14:29:49.056Z,99091.90
2019-03-10T14:32:14.936Z,99082.32
2019-03-10T14:34:40.944Z,99084.63
2019-03-10T14:37:06.830Z,99084.11
2019-03-10T14:39:32.972Z,99084.88
2019-03-10T14:41:59.100Z,99086.53
2019-03-10T14:44:24.989Z,99091.64
2019-03-10T14:46:50.858Z,99093.34
2019-03-10T14:49:23.184Z,99100.27
2019-03-10T14:51:44.490Z,99098.44
2019-03-10T14:54:10.373Z,99104.02
2019-03-10T14:56:36.614Z,99101.20
2019-03-10T14:59:02.568Z,99112.98
2019-03-10T15:01:28.426Z,99110.05
2019-03-10T15:03:54.405Z,99110.99
2019-03-10T15:06:20.372Z,99110.73
2019-03-10T15:08:46.612Z,99112.61
2019-03-10T15:11:12.569Z,99109.28
2019-03-10T15:13:38.433Z,99109.34
2019-03-10T15:16:04.266Z,99116.77
2019-03-10T15:18:31.539Z,99117.50
2019-03-10T15:20:57.432Z,99119.02
2019-03-10T15:23:23.270Z,99109.98
2019-03-10T15:25:49.132Z,99119.61
2019-03-10T15:28:14.976Z,99127.95
2019-03-10T15:30:40.851Z,99121.09
2019-03-10T15:33:06.741Z,99125.97
2019-03-10T15:35:32.603Z,99131.20
2019-03-10T15:37:58.452Z,99133.04
2019-03-10T15:40:24.330Z,99135.77
2019-03-10T15:42:50.198Z,99133.66
2019-03-10T15:45:19.202Z,99144.02
2019-03-10T15:47:45.378Z,99131.56
2019-03-10T15:50:30.462Z,99138.39
2019-03-10T15:52:56.445Z,99131.48
2019-03-10T15:55:22.419Z,99136.83
2019-03-10T15:57:50.644Z,99135.20
2019-03-10T16:00:20.039Z,99136.56
2019-03-10T16:02:45.967Z,99141.34
2019-03-10T16:05:12.077Z,99141.40
2019-03-10T16:07:38.072Z,99145.55
2019-03-10T16:10:05.218Z,99150.41
2019-03-10T16:12:31.107Z,99151.70
2019-03-10T16:14:57.013Z,99157.36
2019-03-10T16:17:22.855Z,99154.80
2019-03-10T16:19:48.709Z,99159.72
2019-03-10T16:22:14.639Z,99157.66
2019-03-10T16:24:40.796Z,99160.09
2019-03-10T16:27:06.639Z,99163.42
2019-03-10T16:29:32.494Z,99166.25
2019-03-10T16:31:58.460Z,99165.55
2019-03-10T16:34:24.315Z,99177.87
2019-03-10T16:36:50.269Z,99180.70
2019-03-10T16:39:16.097Z,99189.52
2019-03-10T16:41:41.967Z,99183.57
2019-03-10T16:44:07.852Z,99189.48
2019-03-10T16:46:33.721Z,99197.09
2019-03-10T16:48:59.662Z,99204.59
2019-03-10T16:51:25.527Z,99201.53
2019-03-10T16:53:53.298Z,99207.20
2019-03-10T16:56:21.171Z,99210.20
2019-03-10T16:58:47.108Z,99210.67
2019-03-10T17:01:13.253Z,99211.61
2019-03-10T17:03:39.125Z,99209.56
2019-03-10T17:06:05.177Z,99213.05
2019-03-10T17:08:31.036Z,99208.41
2019-03-10T17:10:56.916Z,99214.98
2019-03-10T17:13:23.900Z,99217.12
2019-03-10T17:15:50.733Z,99216.83
2019-03-10T17:18:16.608Z,99223.50
2019-03-10T17:20:42.469Z,99217.98
2019-03-10T17:23:08.307Z,99224.60
2019-03-10T17:25:34.267Z,99221.17
2019-03-10T17:28:00.258Z,99224.76
2019-03-10T17:30:26.401Z,99224.47
2019-03-10T17:32:52.306Z,99228.47
2019-03-10T17:35:18.618Z,99227.61
2019-03-10T17:37:48.240Z,99231.08
2019-03-10T17:40:13.298Z,99232.43
2019-03-10T17:42:42.994Z,99229.42
2019-03-10T17:45:10.345Z,99231.70
2019-03-10T17:47:36.268Z,99241.30
2019-03-10T17:50:03.040Z,99242.70
2019-03-10T17:52:28.902Z,99244.79
2019-03-10T17:54:56.686Z,99240.44
2019-03-10T18:09:21.799Z,99262.92
2019-03-10T18:11:47.762Z,99262.06
2019-03-10T18:14:13.750Z,99261.58
2019-03-10T18:16:39.718Z,99261.19
2019-03-10T18:19:05.599Z,99262.44
2019-03-10T18:21:31.552Z,99262.44
2019-03-10T18:23:57.618Z,99258.10
2019-03-10T18:26:23.518Z,99255.92
2019-03-10T18:28:49.410Z,99263.32
2019-03-10T18:31:15.255Z,99262.02
2019-03-10T18:33:41.145Z,99263.70
2019-03-10T18:36:07.020Z,99264.44
2019-03-10T18:38:32.908Z,99262.66
2019-03-10T18:40:58.763Z,99268.69
2019-03-10T18:43:25.253Z,99263.91
2019-03-10T18:45:51.191Z,99259.09
2019-03-10T18:48:17.163Z,99262.56
2019-03-10T18:50:43.134Z,99261.30
2019-03-10T18:53:09.147Z,99263.95
2019-03-10T18:55:34.978Z,99263.09
2019-03-10T18:58:01.970Z,99268.83
2019-03-10T19:00:31.121Z,99267.14
2019-03-10T19:02:58.595Z,99274.17
2019-03-10T19:05:24.549Z,99271.09
2019-03-10T19:07:50.466Z,99270.31
2019-03-10T19:10:16.566Z,99264.63
2019-03-10T19:12:42.925Z,99265.53
2019-03-10T19:15:18.513Z,99263.88
2019-03-10T19:17:44.501Z,99269.97
2019-03-10T19:20:11.268Z,99265.67
2019-03-10T19:22:38.282Z,99268.72
2019-03-10T19:25:04.500Z,99270.02
2019-03-10T19:27:30.623Z,99265.76
2019-03-10T19:29:56.517Z,99274.92
2019-03-10T19:32:22.386Z,99274.50
2019-03-10T19:34:48.371Z,99276.32
2019-03-10T19:37:14.258Z,99278.06
2019-03-10T19:39:40.239Z,99281.58
2019-03-10T19:42:06.090Z,99279.84
2019-03-10T19:44:31.955Z,99281.20
2019-03-10T19:46:57.846Z,99279.02
2019-03-10T19:49:23.674Z,99280.36
2019-03-10T19:51:49.544Z,99276.50
2019-03-10T19:54:15.431Z,99274.28
2019-03-10T19:56:41.417Z,99281.75
2019-03-10T19:59:07.275Z,99277.84
2019-03-10T20:01:33.137Z,99283.06
2019-03-10T20:03:59.063Z,99287.80
2019-03-10T20:06:25.033Z,99292.22
2019-03-10T20:08:50.988Z,99293.53
2019-03-10T20:11:17.053Z,99290.97
2019-03-10T20:13:42.941Z,99293.14
2019-03-10T20:16:08.812Z,99288.48
2019-03-10T20:18:34.676Z,99296.44
2019-03-10T20:21:00.527Z,99297.34
2019-03-10T20:23:26.402Z,99302.56
2019-03-10T20:25:52.377Z,99304.69
2019-03-10T20:28:18.236Z,99306.03
2019-03-10T20:30:44.246Z,99307.73
2019-03-10T20:33:10.091Z,99310.38
2019-03-10T20:35:35.946Z,99314.76
2019-03-10T20:38:01.943Z,99317.41
2019-03-10T20:40:27.884Z,99323.49
2019-03-10T20:42:53.854Z,99320.02
2019-03-10T20:45:19.822Z,99326.09
2019-03-10T20:47:45.809Z,99324.80
2019-03-10T20:50:19.767Z,99337.34
2019-03-10T20:52:45.634Z,99339.91
2019-03-10T20:55:11.888Z,99337.66
2019-03-10T20:57:38.042Z,99343.30
2019-03-10T21:00:05.799Z,99343.73
2019-03-10T21:02:32.685Z,99343.78
2019-03-10T21:04:58.670Z,99348.99
2019-03-10T21:07:24.555Z,99358.16
2019-03-10T21:09:50.390Z,99352.55
2019-03-10T21:12:16.480Z,99353.46
2019-03-10T21:14:42.442Z,99356.11
2019-03-10T21:17:08.307Z,99353.58
2019-03-10T21:19:34.185Z,99357.97
2019-03-10T21:22:00.042Z,99360.58
2019-03-10T21:24:25.894Z,99363.27
2019-03-10T21:26:51.785Z,99359.86
2019-03-10T21:29:17.749Z,99370.33
2019-03-10T21:31:43.682Z,99376.87
2019-03-10T21:34:09.542Z,99374.70
2019-03-10T21:36:35.388Z,99377.35
2019-03-10T21:39:01.355Z,99374.34
2019-03-10T21:41:27.319Z,99382.64
2019-03-10T21:43:53.284Z,99386.15
2019-03-10T21:46:21.058Z,99388.40
2019-03-10T21:48:46.925Z,99391.08
2019-03-10T21:51:12.780Z,99394.67
2019-03-10T21:53:38.643Z,99401.22
2019-03-10T21:56:04.494Z,99404.66
2019-03-10T21:58:30.350Z,99396.44
2019-03-10T22:00:56.193Z,99402.95
2019-03-10T22:03:22.186Z,99412.54
2019-03-10T22:05:48.079Z,99414.35
2019-03-10T22:08:13.938Z,99415.33
2019-03-10T22:10:39.852Z,99410.20
2019-03-10T22:13:05.895Z,99418.01
2019-03-10T22:15:41.198Z,99408.50
2019-03-10T22:17:59.486Z,99417.17
2019-03-10T22:20:25.400Z,99423.29
2019-03-10T22:22:51.366Z,99417.72
2019-03-10T22:25:17.258Z,99425.17
2019-03-10T22:27:45.573Z,99425.17
2019-03-10T22:30:15.542Z,99437.78
2019-03-10T22:32:41.402Z,99430.02
2019-03-10T22:35:07.383Z,99442.16
2019-03-10T22:37:33.342Z,99439.13
2019-03-10T22:39:59.215Z,99433.55
2019-03-10T22:42:25.062Z,99434.45
2019-03-10T22:44:50.912Z,99442.27
2019-03-10T22:47:16.911Z,99440.13
2019-03-10T22:49:42.750Z,99443.17
2019-03-10T22:52:08.591Z,99432.39
2019-03-10T22:54:34.484Z,99448.45
2019-03-10T22:57:00.340Z,99439.73
2019-03-10T22:59:26.273Z,99445.81
2019-03-10T23:01:52.333Z,99451.45
2019-03-10T23:04:18.180Z,99441.07
2019-03-10T23:06:44.099Z,99445.88
2019-03-10T23:09:09.960Z,99452.34
2019-03-10T23:11:35.943Z,99449.81
2019-03-10T23:14:02.009Z,99446.78
2019-03-10T23:16:27.853Z,99458.89
2019-03-10T23:18:53.706Z,99446.78
2019-03-10T23:21:21.429Z,99451.98
2019-03-10T23:23:47.306Z,99460.63
2019-03-10T23:26:13.218Z,99463.27
2019-03-10T23:28:39.071Z,99459.42
2019-03-10T23:31:04.955Z,99466.00
2019-03-10T23:33:30.805Z,99466.53
2019-03-10T23:35:56.777Z,99467.44
2019-03-10T23:38:22.659Z,99467.91
2019-03-10T23:40:48.639Z,99471.88
2019-03-10T23:43:14.474Z,99471.07
2019-03-10T23:45:40.455Z,99477.98
2019-03-10T23:48:06.408Z,99479.31
2019-03-10T23:50:32.324Z,99470.67
2019-03-10T23:52:58.271Z,99478.94
2019-03-10T23:55:24.112Z,99485.02
2019-03-10T23:57:49.971Z,99485.41
